createdAt,value
2018-10-21T00:00:04.532Z,9.40
2018-10-21T00:06:09.501Z,9.90
2018-10-21T00:12:14.432Z,8.90
2018-10-21T00:18:19.262Z,12.33
2018-10-21T00:24:24.118Z,16.40
2018-10-21T00:30:29.098Z,10.37
2018-10-21T00:36:34.202Z,11.47
2018-10-21T00:42:39.333Z,14.20
2018-10-21T00:48:44.333Z,10.00
2018-10-21T00:54:49.329Z,10.90
2018-10-21T01:00:54.387Z,10.43
2018-10-21T01:06:59.443Z,7.50
2018-10-21T01:13:04.418Z,8.63
2018-10-21T01:19:09.473Z,9.70
2018-10-21T01:25:14.514Z,8.50
2018-10-21T01:31:19.528Z,10.47
2018-10-21T01:37:24.652Z,8.60
2018-10-21T01:43:32.465Z,12.90
2018-10-21T01:49:37.477Z,11.60
2018-10-21T01:55:43.191Z,14.40
2018-10-21T02:01:48.684Z,10.50
2018-10-21T02:07:53.627Z,7.00
2018-10-21T02:13:59.368Z,11.50
2018-10-21T02:20:04.344Z,12.30
2018-10-21T02:26:10.135Z,7.77
2018-10-21T02:32:15.073Z,6.70
2018-10-21T02:38:20.075Z,8.57
2018-10-21T02:44:25.568Z,12.43
2018-10-21T02:50:32.792Z,9.40
2018-10-21T02:56:37.817Z,10.43
2018-10-21T03:02:42.807Z,8.70
2018-10-21T03:08:47.719Z,10.93
2018-10-21T03:14:52.426Z,9.63
2018-10-21T03:20:57.741Z,16.13
2018-10-21T03:27:03.913Z,11.93
2018-10-21T03:33:10.322Z,18.03
2018-10-21T03:39:15.333Z,14.00
2018-10-21T03:45:20.391Z,17.60
2018-10-21T03:51:25.745Z,10.43
2018-10-21T03:57:32.410Z,10.30
2018-10-21T04:03:37.491Z,13.20
2018-10-21T04:09:42.544Z,15.87
2018-10-21T04:15:47.842Z,19.77
2018-10-21T04:21:52.782Z,11.60
2018-10-21T04:27:58.684Z,11.57
2018-10-21T04:34:03.674Z,12.17
2018-10-21T04:40:22.229Z,13.07
2018-10-21T04:46:26.877Z,15.03
2018-10-21T04:52:32.373Z,14.60
2018-10-21T04:58:37.071Z,14.50
2018-10-21T05:04:42.082Z,16.93
2018-10-21T05:10:46.841Z,11.37
2018-10-21T05:16:52.452Z,11.10
2018-10-21T05:23:01.380Z,11.60
2018-10-21T05:29:06.285Z,11.63
2018-10-21T05:35:12.953Z,10.93
2018-10-21T05:41:18.138Z,8.97
2018-10-21T05:47:23.145Z,11.03
2018-10-21T05:53:28.778Z,10.73
2018-10-21T05:59:34.239Z,11.13
2018-10-21T06:05:47.954Z,12.87
2018-10-21T06:11:52.913Z,10.97
2018-10-21T06:17:57.801Z,11.13
2018-10-21T06:24:04.430Z,12.20
2018-10-21T06:30:11.656Z,10.00
2018-10-21T06:36:16.771Z,18.80
2018-10-21T06:42:22.445Z,10.93
2018-10-21T06:48:27.544Z,17.17
2018-10-21T06:54:32.588Z,14.53
2018-10-21T07:00:37.600Z,19.60
2018-10-21T07:06:43.068Z,18.03
2018-10-21T07:12:47.809Z,20.77
2018-10-21T07:18:52.827Z,21.37
2018-10-21T07:24:57.581Z,19.30
2018-10-21T07:31:03.520Z,15.83
2018-10-21T07:37:09.675Z,22.03
2018-10-21T07:43:14.691Z,17.80
2018-10-21T07:49:19.735Z,17.40
2018-10-21T07:55:24.847Z,16.53
2018-10-21T08:01:29.866Z,16.83
2018-10-21T08:08:42.051Z,19.30
2018-10-21T08:14:47.711Z,18.67
2018-10-21T08:20:54.495Z,17.23
2018-10-21T08:27:00.344Z,18.13
2018-10-21T08:33:06.093Z,16.67
2018-10-21T08:39:12.053Z,19.90
2018-10-21T08:45:17.407Z,20.57
2018-10-21T08:51:22.443Z,23.03
2018-10-21T08:57:27.469Z,23.30
2018-10-21T09:03:32.413Z,23.53
2018-10-21T09:09:37.485Z,23.77
2018-10-21T09:15:43.313Z,24.03
2018-10-21T09:21:48.694Z,22.17
2018-10-21T09:27:53.741Z,20.83
2018-10-21T09:33:58.710Z,28.23
2018-10-21T09:40:03.724Z,23.87
2018-10-21T09:46:08.597Z,20.90
2018-10-21T09:52:13.348Z,29.10
2018-10-21T09:58:18.522Z,30.47
2018-10-21T10:04:23.314Z,26.87
2018-10-21T10:10:28.079Z,28.53
2018-10-21T10:16:32.891Z,30.53
2018-10-21T10:22:37.578Z,29.70
2018-10-21T10:28:42.347Z,36.13
2018-10-21T10:34:47.152Z,24.80
2018-10-21T10:40:52.219Z,36.17
2018-10-21T10:46:57.063Z,28.13
2018-10-21T10:53:02.230Z,28.33
2018-10-21T10:59:07.022Z,30.03
2018-10-21T11:05:12.277Z,29.83
2018-10-21T11:11:17.291Z,26.93
2018-10-21T11:18:31.333Z,33.97
2018-10-21T11:24:42.140Z,29.77
2018-10-21T11:30:46.956Z,37.03
2018-10-21T11:36:52.331Z,31.00
2018-10-21T11:43:02.196Z,34.83
2018-10-21T11:49:07.250Z,30.10
2018-10-21T11:55:12.884Z,30.13
2018-10-21T12:01:18.518Z,30.57
2018-10-21T12:07:23.597Z,29.20
2018-10-21T12:13:28.700Z,30.53
2018-10-21T12:19:33.752Z,26.07
2018-10-21T12:25:38.801Z,24.93
2018-10-21T12:31:43.774Z,23.07
2018-10-21T12:37:48.896Z,23.33
2018-10-21T12:43:54.287Z,23.97
2018-10-21T12:50:00.138Z,22.47
2018-10-21T12:56:05.409Z,18.27
2018-10-21T13:02:10.496Z,24.07
2018-10-21T13:08:15.212Z,21.00
2018-10-21T13:14:19.951Z,13.97
2018-10-21T13:20:25.257Z,14.23
2018-10-21T13:26:30.075Z,11.80
2018-10-21T13:32:35.813Z,12.90
2018-10-21T13:38:40.796Z,13.23
2018-10-21T13:44:45.559Z,11.10
2018-10-21T13:50:50.598Z,12.90
2018-10-21T13:56:55.927Z,12.03
2018-10-21T14:03:00.614Z,10.30
2018-10-21T14:09:09.572Z,11.17
2018-10-21T14:15:14.282Z,8.07
2018-10-21T14:21:18.867Z,7.50
2018-10-21T14:27:23.651Z,7.40
2018-10-21T14:33:28.703Z,7.03
2018-10-21T14:39:33.343Z,6.40
2018-10-21T14:45:38.064Z,5.40
2018-10-21T14:51:43.049Z,6.73
2018-10-21T14:57:48.063Z,12.20
2018-10-21T15:03:53.072Z,11.17
2018-10-21T15:09:58.147Z,6.33
2018-10-21T15:16:03.320Z,10.33
2018-10-21T15:22:08.371Z,11.47
2018-10-21T15:28:13.394Z,8.63
2018-10-21T15:34:18.395Z,7.30
2018-10-21T15:40:23.461Z,9.93
2018-10-21T15:46:28.425Z,8.77
2018-10-21T15:52:33.937Z,8.97
2018-10-21T15:58:38.928Z,10.40
2018-10-21T16:04:43.899Z,6.47
2018-10-21T16:10:49.830Z,14.57
2018-10-21T16:16:54.866Z,6.77
2018-10-21T16:22:59.877Z,9.97
2018-10-21T16:29:04.920Z,9.60
2018-10-21T16:35:10.425Z,9.23
2018-10-21T16:41:15.441Z,7.03
2018-10-21T16:47:20.415Z,9.10
2018-10-21T16:53:25.440Z,8.10
2018-10-21T16:59:30.421Z,10.73
2018-10-21T17:05:35.463Z,11.03
2018-10-21T17:11:40.513Z,13.00
2018-10-21T17:17:45.464Z,9.57
2018-10-21T17:23:50.411Z,13.23
2018-10-21T17:29:55.395Z,9.50
2018-10-21T17:36:00.445Z,11.60
2018-10-21T17:42:06.205Z,11.17
2018-10-21T17:48:11.269Z,9.37
2018-10-21T17:54:16.281Z,10.83
2018-10-21T18:00:21.293Z,14.70
2018-10-21T18:06:26.270Z,14.70
2018-10-21T18:12:31.682Z,12.13
2018-10-21T18:18:36.705Z,12.13
2018-10-21T18:24:41.733Z,8.77
2018-10-21T18:30:46.719Z,11.93
2018-10-21T18:36:51.764Z,11.90
2018-10-21T18:42:56.853Z,11.53
2018-10-21T18:49:01.828Z,9.20
2018-10-21T18:55:07.812Z,15.27
2018-10-21T19:01:12.553Z,11.13
2018-10-21T19:07:18.095Z,9.20
2018-10-21T19:13:22.945Z,16.97
2018-10-21T19:19:27.837Z,12.40
2018-10-21T19:25:32.807Z,13.50
2018-10-21T19:31:37.489Z,10.43
2018-10-21T19:37:43.056Z,10.43
2018-10-21T19:43:48.038Z,8.60
2018-10-21T19:49:53.040Z,14.87
2018-10-21T19:55:57.959Z,10.10
2018-10-21T20:02:02.888Z,12.93
2018-10-21T20:08:07.876Z,13.63
2018-10-21T20:14:12.907Z,14.07
2018-10-21T20:20:17.857Z,13.67
2018-10-21T20:26:22.787Z,9.90
2018-10-21T20:32:28.535Z,13.00
2018-10-21T20:38:34.071Z,14.00
2018-10-21T20:44:39.106Z,11.50
2018-10-21T20:50:44.132Z,23.20
2018-10-21T20:56:49.179Z,18.27
2018-10-21T21:02:54.173Z,19.63
2018-10-21T21:09:00.242Z,16.20
2018-10-21T21:15:05.358Z,13.90
2018-10-21T21:21:10.302Z,15.73
2018-10-21T21:27:15.301Z,14.30
2018-10-21T21:33:20.341Z,9.97
2018-10-21T21:39:25.298Z,10.63
2018-10-21T21:45:30.014Z,14.53
2018-10-21T21:51:34.866Z,11.27
2018-10-21T21:57:39.548Z,15.43
2018-10-21T22:03:44.580Z,18.20
2018-10-21T22:09:49.480Z,23.20
2018-10-21T22:15:54.680Z,16.27
2018-10-21T22:21:59.651Z,11.83
2018-10-21T22:28:04.706Z,15.53
2018-10-21T22:34:09.946Z,12.00
2018-10-21T22:40:14.987Z,16.87
2018-10-21T22:46:20.110Z,16.47
2018-10-21T22:52:24.639Z,9.40
2018-10-21T22:58:29.636Z,12.03
2018-10-21T23:04:34.445Z,13.40
2018-10-21T23:10:39.103Z,19.27
2018-10-21T23:16:44.115Z,16.90
2018-10-21T23:22:49.280Z,11.83
2018-10-21T23:31:28.611Z,16.00
2018-10-21T23:37:33.436Z,15.40
2018-10-21T23:43:38.957Z,12.60
2018-10-21T23:49:43.640Z,11.00
2018-10-21T23:55:48.320Z,9.73
